Terminal Aerodrome Forecast
Issued by NWS Wilmington, OH

Current Version | Previous Version | Text Only | Print | Product List | Glossary Off
Versions: 1 2 3 4 5 6 7 8 9 10 11 12 13 14 15 16 17 18 19 20 21

000
FTUS41 KILN 261100
TAFDAY
TAF
KDAY 261134Z 2612/2712 03007KT 5SM -SHRA BR OVC015
      TEMPO 2612/2614 2SM -SHRA BR OVC005
     FM261400 33015G22KT 2SM -SHRA BR OVC015
     FM261500 33015G24KT P6SM OVC025
     FM262100 32014KT P6SM SCT040 BKN120
     FM270800 33010KT P6SM BKN035=

USA.gov is the U.S. government's official web portal to all federal, state and local government web resources and services.